createdAt,value
2017-11-12T11:00:03.616Z,10.63
2017-11-12T11:02:46.037Z,8.90
2017-11-12T11:05:28.512Z,9.40
2017-11-12T11:08:11.216Z,8.93
2017-11-12T11:10:54.737Z,7.87
2017-11-12T11:13:38.458Z,8.17
2017-11-12T11:16:21.198Z,7.53
2017-11-12T11:19:02.953Z,6.37
2017-11-12T11:21:45.684Z,7.53
2017-11-12T11:24:28.100Z,7.77
2017-11-12T11:27:10.751Z,6.40
2017-11-12T11:29:53.263Z,7.00
2017-11-12T11:32:36.892Z,7.00
2017-11-12T11:35:19.419Z,6.83
2017-11-12T11:38:01.853Z,7.60
2017-11-12T11:40:43.573Z,7.50
2017-11-12T11:43:26.156Z,7.40
2017-11-12T11:46:07.817Z,7.77
2017-11-12T11:48:51.451Z,8.10
2017-11-12T11:51:33.529Z,8.10
2017-11-12T11:54:16.714Z,8.07
2017-11-12T11:56:58.393Z,7.40
2017-11-12T11:59:41.040Z,8.17
2017-11-12T12:02:22.701Z,8.33
2017-11-12T12:05:05.303Z,7.70
2017-11-12T12:07:47.026Z,8.40
2017-11-12T12:10:29.709Z,8.93
2017-11-12T12:56:53.843Z,8.67
2017-11-12T12:59:38.228Z,8.73
2017-11-12T13:02:21.931Z,8.77
2017-11-12T13:05:06.640Z,8.07
2017-11-12T13:07:50.213Z,9.00
2017-11-12T13:10:34.940Z,8.77
2017-11-12T13:13:18.613Z,7.80
2017-11-12T13:16:03.152Z,8.77
2017-11-12T13:18:46.848Z,7.70
2017-11-12T13:21:31.405Z,7.20
2017-11-12T13:24:14.920Z,6.10
2017-11-12T13:26:58.672Z,6.13
2017-11-12T13:29:42.892Z,6.40
2017-11-12T13:32:27.944Z,5.47
2017-11-12T13:35:11.788Z,5.37
2017-11-12T13:37:56.292Z,6.10
2017-11-12T13:40:39.916Z,5.20
2017-11-12T13:43:23.596Z,5.90
2017-11-12T13:46:07.257Z,5.90
2017-11-12T13:48:51.800Z,5.23
2017-11-12T13:51:35.723Z,5.50
2017-11-12T13:54:20.291Z,5.60
2017-11-12T13:57:03.937Z,5.57
2017-11-12T13:59:48.541Z,5.60
2017-11-12T14:02:39.523Z,5.37
2017-11-12T14:05:25.042Z,5.70
2017-11-12T14:08:07.372Z,5.00
2017-11-12T14:10:50.642Z,5.20
2017-11-12T14:13:32.121Z,5.80
2017-11-12T14:16:14.766Z,5.50
2017-11-12T14:18:42.304Z,6.30
2017-11-12T14:21:25.518Z,6.03
2017-11-12T14:24:07.932Z,6.00
2017-11-12T14:26:50.489Z,8.03
2017-11-12T14:29:31.905Z,8.40
2017-11-12T14:32:14.308Z,7.90
2017-11-12T14:34:55.926Z,7.40
2017-11-12T14:37:38.566Z,7.03
2017-11-12T14:40:20.146Z,6.50
2017-11-12T14:43:03.700Z,7.87
2017-11-12T14:45:45.509Z,7.30
2017-11-12T14:48:28.988Z,7.10
2017-11-12T14:51:10.665Z,6.77
2017-11-12T14:53:53.298Z,6.63
2017-11-12T14:56:35.073Z,7.27
2017-11-12T14:59:18.521Z,8.23
2017-11-12T15:02:12.441Z,7.20
2017-11-12T15:04:55.829Z,5.83
2017-11-12T15:07:37.492Z,5.60
2017-11-12T15:10:21.456Z,6.50
2017-11-12T15:13:03.290Z,6.03
2017-11-12T15:15:45.826Z,5.70
2017-11-12T15:18:27.442Z,5.87
2017-11-12T15:21:09.937Z,6.43
2017-11-12T15:23:52.782Z,5.67
2017-11-12T15:26:36.385Z,5.07
2017-11-12T15:29:17.965Z,4.87
2017-11-12T15:32:00.646Z,6.20
2017-11-12T15:34:43.573Z,4.77
2017-11-12T15:37:26.254Z,4.63
2017-11-12T15:40:08.079Z,4.03
2017-11-12T15:42:50.722Z,3.80
2017-11-12T15:45:34.369Z,4.70
2017-11-12T15:48:19.299Z,4.50
2017-11-12T15:51:02.987Z,5.00
2017-11-12T15:53:32.104Z,4.30
